Estación Meteorológica Peña el Pijo (Robertgarden) [ 01/30/23 15:09:47 CET ]

Fecha Hora Presion(HPa) Temp (°C) Humedad % Rocio (°C) Viento ( m/s) Direccion Lluvia 1Hora(mm) Lluvia 24H(mm) LLuvia Total(mm)
2010-Apr-18 01:01:11 1006.600 7.6 94 6.7         111.88
2010-Apr-18 02:01:14 1006.600 7.6 94 6.7         111.88
2010-Apr-18 03:03:13 1006.600 7.6 94 6.7         111.88
2010-Apr-18 04:01:13 1006.100 7.5 94 6.6         111.88
2010-Apr-18 05:01:13 1005.800 6.8 95 6.0         111.88
2010-Apr-18 06:01:14 1005.600 5.9 95 5.2         111.88
2010-Apr-18 07:08:12 1005.800 - - - - NNE     111.88
2010-Apr-18 08:08:11 1006.200 - - - - NNE     111.88
2010-Apr-18 09:01:11 1006.400 6.6 96 6.0         111.88
2010-Apr-18 10:01:14 1006.800 8.3 96 7.7         111.88
2010-Apr-18 11:01:16 1006.900 14.3 74 9.7         111.88
2010-Apr-18 12:01:11 1006.900 13.1 69 7.6         111.88
2010-Apr-18 13:01:12 1006.900 11.8 75 7.5         111.88
2010-Apr-18 14:08:12 1006.800 - - - - SSE     111.88
2010-Apr-18 15:01:15 1006.400 12.6 73 7.9         111.88
2010-Apr-18 16:08:05 1006.800 - - - - N     111.88
2010-Apr-18 17:01:18 1006.400 10.9 85 8.4         111.88
2010-Apr-18 18:01:17 1006.700 11.3 82 8.3         111.88
2010-Apr-18 19:01:16 1007.600 10.2 86 7.9         111.88
2010-Apr-18 20:01:14 1007.500 8.7 89 7.0         111.88
2010-Apr-18 21:07:05 1008.200 - - -         111.88
2010-Apr-18 22:01:16 1008.600 8.1 91 6.8         111.88
2010-Apr-18 23:01:12 1009.100 7.9 92 6.7         111.88

Temperatura Máxima:14°    Temperatura Mínima:
Presión Máxima:1009.100 Hpa    Presión Mínima:1005.600 Hpa


Volver